sensor_id;sensor_type;location;lat;lon;timestamp;P1;durP1;ratioP1;P2;durP2;ratioP2
7166;SDS011;3625;51.762;14.320;2022-12-29T00:00:23;3.10;;;2.63;;
7166;SDS011;3625;51.762;14.320;2022-12-29T00:02:51;4.80;;;2.90;;
7166;SDS011;3625;51.762;14.320;2022-12-29T00:05:20;3.27;;;2.97;;
7166;SDS011;3625;51.762;14.320;2022-12-29T00:07:48;3.10;;;2.67;;
7166;SDS011;3625;51.762;14.320;2022-12-29T00:10:17;4.43;;;3.00;;
7166;SDS011;3625;51.762;14.320;2022-12-29T00:12:45;3.13;;;2.90;;
7166;SDS011;3625;51.762;14.320;2022-12-29T00:15:33;2.70;;;2.50;;
7166;SDS011;3625;51.762;14.320;2022-12-29T00:18:07;3.73;;;3.00;;
7166;SDS011;3625;51.762;14.320;2022-12-29T00:20:36;4.40;;;2.63;;
7166;SDS011;3625;51.762;14.320;2022-12-29T00:23:23;4.20;;;3.13;;
7166;SDS011;3625;51.762;14.320;2022-12-29T00:26:11;3.13;;;2.70;;
7166;SDS011;3625;51.762;14.320;2022-12-29T00:28:59;2.90;;;2.60;;
7166;SDS011;3625;51.762;14.320;2022-12-29T00:31:48;4.80;;;2.80;;
7166;SDS011;3625;51.762;14.320;2022-12-29T00:34:35;3.53;;;2.57;;
7166;SDS011;3625;51.762;14.320;2022-12-29T00:37:21;5.30;;;2.90;;
7166;SDS011;3625;51.762;14.320;2022-12-29T00:40:10;3.80;;;2.90;;
7166;SDS011;3625;51.762;14.320;2022-12-29T00:42:56;4.10;;;2.63;;
7166;SDS011;3625;51.762;14.320;2022-12-29T00:45:43;3.33;;;2.70;;
7166;SDS011;3625;51.762;14.320;2022-12-29T00:48:15;3.17;;;2.47;;
7166;SDS011;3625;51.762;14.320;2022-12-29T00:51:05;3.00;;;2.70;;
7166;SDS011;3625;51.762;14.320;2022-12-29T00:53:33;3.10;;;2.80;;
7166;SDS011;3625;51.762;14.320;2022-12-29T00:56:02;2.90;;;2.60;;
7166;SDS011;3625;51.762;14.320;2022-12-29T00:58:31;3.03;;;2.70;;
7166;SDS011;3625;51.762;14.320;2022-12-29T01:01:02;3.30;;;2.43;;
7166;SDS011;3625;51.762;14.320;2022-12-29T01:03:34;3.47;;;2.70;;
7166;SDS011;3625;51.762;14.320;2022-12-29T01:06:05;3.13;;;2.50;;
7166;SDS011;3625;51.762;14.320;2022-12-29T01:08:36;2.87;;;2.60;;
7166;SDS011;3625;51.762;14.320;2022-12-29T01:11:06;3.47;;;2.40;;
7166;SDS011;3625;51.762;14.320;2022-12-29T01:13:36;3.37;;;2.37;;
7166;SDS011;3625;51.762;14.320;2022-12-29T01:16:05;2.67;;;2.47;;
7166;SDS011;3625;51.762;14.320;2022-12-29T01:18:38;3.30;;;2.50;;
7166;SDS011;3625;51.762;14.320;2022-12-29T01:21:07;2.80;;;2.60;;
7166;SDS011;3625;51.762;14.320;2022-12-29T01:23:35;2.50;;;2.30;;
7166;SDS011;3625;51.762;14.320;2022-12-29T01:26:08;2.50;;;2.30;;
7166;SDS011;3625;51.762;14.320;2022-12-29T01:28:37;2.70;;;2.40;;
7166;SDS011;3625;51.762;14.320;2022-12-29T01:31:08;2.70;;;2.50;;
7166;SDS011;3625;51.762;14.320;2022-12-29T01:33:39;2.17;;;2.07;;
7166;SDS011;3625;51.762;14.320;2022-12-29T01:36:09;2.40;;;2.20;;
7166;SDS011;3625;51.762;14.320;2022-12-29T01:38:50;3.67;;;2.47;;
7166;SDS011;3625;51.762;14.320;2022-12-29T01:41:19;2.50;;;2.30;;
7166;SDS011;3625;51.762;14.320;2022-12-29T01:43:52;2.73;;;2.27;;
7166;SDS011;3625;51.762;14.320;2022-12-29T01:46:23;2.40;;;2.20;;
7166;SDS011;3625;51.762;14.320;2022-12-29T01:51:57;2.50;;;2.30;;
7166;SDS011;3625;51.762;14.320;2022-12-29T01:54:31;2.70;;;2.40;;
7166;SDS011;3625;51.762;14.320;2022-12-29T01:57:07;3.40;;;2.10;;
7166;SDS011;3625;51.762;14.320;2022-12-29T01:59:41;3.27;;;2.13;;
7166;SDS011;3625;51.762;14.320;2022-12-29T02:02:20;5.10;;;2.27;;
7166;SDS011;3625;51.762;14.320;2022-12-29T02:04:50;2.37;;;2.20;;
7166;SDS011;3625;51.762;14.320;2022-12-29T02:07:30;2.10;;;1.90;;
7166;SDS011;3625;51.762;14.320;2022-12-29T02:09:59;3.23;;;2.50;;
7166;SDS011;3625;51.762;14.320;2022-12-29T02:12:30;3.27;;;2.30;;
7166;SDS011;3625;51.762;14.320;2022-12-29T02:14:59;2.67;;;2.47;;
7166;SDS011;3625;51.762;14.320;2022-12-29T02:17:47;2.73;;;2.53;;
7166;SDS011;3625;51.762;14.320;2022-12-29T02:24:20;2.73;;;2.20;;
7166;SDS011;3625;51.762;14.320;2022-12-29T02:27:51;2.40;;;2.20;;
7166;SDS011;3625;51.762;14.320;2022-12-29T02:31:20;2.67;;;2.33;;
7166;SDS011;3625;51.762;14.320;2022-12-29T02:34:10;2.47;;;2.27;;
7166;SDS011;3625;51.762;14.320;2022-12-29T02:36:56;2.83;;;2.50;;
7166;SDS011;3625;51.762;14.320;2022-12-29T02:39:40;2.77;;;2.10;;
7166;SDS011;3625;51.762;14.320;2022-12-29T02:42:20;2.67;;;2.20;;
7166;SDS011;3625;51.762;14.320;2022-12-29T02:45:06;2.43;;;2.23;;
7166;SDS011;3625;51.762;14.320;2022-12-29T02:47:54;2.97;;;2.50;;
7166;SDS011;3625;51.762;14.320;2022-12-29T02:50:36;2.87;;;2.23;;
7166;SDS011;3625;51.762;14.320;2022-12-29T02:53:11;3.43;;;2.30;;
7166;SDS011;3625;51.762;14.320;2022-12-29T02:56:08;2.40;;;2.20;;
7166;SDS011;3625;51.762;14.320;2022-12-29T02:58:40;2.70;;;2.50;;
7166;SDS011;3625;51.762;14.320;2022-12-29T03:01:19;2.30;;;2.07;;
7166;SDS011;3625;51.762;14.320;2022-12-29T03:04:13;2.60;;;2.40;;
7166;SDS011;3625;51.762;14.320;2022-12-29T03:07:05;2.40;;;2.17;;
7166;SDS011;3625;51.762;14.320;2022-12-29T03:09:47;2.30;;;1.90;;
7166;SDS011;3625;51.762;14.320;2022-12-29T03:12:29;2.33;;;2.23;;
7166;SDS011;3625;51.762;14.320;2022-12-29T03:15:28;2.83;;;2.23;;
7166;SDS011;3625;51.762;14.320;2022-12-29T03:18:40;2.10;;;1.93;;
7166;SDS011;3625;51.762;14.320;2022-12-29T03:21:19;2.10;;;2.00;;
7166;SDS011;3625;51.762;14.320;2022-12-29T03:24:13;2.10;;;1.93;;
7166;SDS011;3625;51.762;14.320;2022-12-29T03:26:49;2.30;;;2.10;;
7166;SDS011;3625;51.762;14.320;2022-12-29T03:29:38;2.60;;;2.10;;
7166;SDS011;3625;51.762;14.320;2022-12-29T03:32:17;2.33;;;2.13;;
7166;SDS011;3625;51.762;14.320;2022-12-29T03:34:48;2.10;;;2.00;;
7166;SDS011;3625;51.762;14.320;2022-12-29T03:37:20;3.67;;;2.17;;
7166;SDS011;3625;51.762;14.320;2022-12-29T03:39:57;2.27;;;2.00;;
7166;SDS011;3625;51.762;14.320;2022-12-29T03:42:28;2.40;;;2.20;;
7166;SDS011;3625;51.762;14.320;2022-12-29T03:45:07;2.20;;;1.90;;
7166;SDS011;3625;51.762;14.320;2022-12-29T03:47:38;2.30;;;2.10;;
7166;SDS011;3625;51.762;14.320;2022-12-29T03:50:33;2.23;;;2.00;;
7166;SDS011;3625;51.762;14.320;2022-12-29T03:53:09;2.50;;;2.30;;
7166;SDS011;3625;51.762;14.320;2022-12-29T03:55:38;2.47;;;2.17;;
7166;SDS011;3625;51.762;14.320;2022-12-29T04:02:07;2.40;;;2.20;;
7166;SDS011;3625;51.762;14.320;2022-12-29T04:04:36;2.53;;;2.33;;
7166;SDS011;3625;51.762;14.320;2022-12-29T04:07:09;2.93;;;2.63;;
7166;SDS011;3625;51.762;14.320;2022-12-29T04:09:41;2.53;;;2.27;;
7166;SDS011;3625;51.762;14.320;2022-12-29T04:12:19;2.50;;;2.30;;
7166;SDS011;3625;51.762;14.320;2022-12-29T04:14:49;3.33;;;2.27;;
7166;SDS011;3625;51.762;14.320;2022-12-29T04:17:20;2.23;;;1.93;;
7166;SDS011;3625;51.762;14.320;2022-12-29T04:22:59;2.20;;;2.00;;
7166;SDS011;3625;51.762;14.320;2022-12-29T04:25:31;3.00;;;2.43;;
7166;SDS011;3625;51.762;14.320;2022-12-29T04:28:06;2.43;;;2.20;;
7166;SDS011;3625;51.762;14.320;2022-12-29T04:30:47;2.33;;;2.07;;
7166;SDS011;3625;51.762;14.320;2022-12-29T04:33:23;2.77;;;2.57;;
7166;SDS011;3625;51.762;14.320;2022-12-29T04:36:09;3.07;;;2.53;;
7166;SDS011;3625;51.762;14.320;2022-12-29T04:38:38;2.13;;;1.97;;
7166;SDS011;3625;51.762;14.320;2022-12-29T04:41:15;2.60;;;2.40;;
7166;SDS011;3625;51.762;14.320;2022-12-29T04:44:21;2.60;;;2.20;;
7166;SDS011;3625;51.762;14.320;2022-12-29T04:47:08;2.97;;;2.40;;
7166;SDS011;3625;51.762;14.320;2022-12-29T04:50:09;3.83;;;2.30;;
7166;SDS011;3625;51.762;14.320;2022-12-29T04:52:42;2.47;;;2.27;;
7166;SDS011;3625;51.762;14.320;2022-12-29T04:55:20;2.40;;;2.20;;
7166;SDS011;3625;51.762;14.320;2022-12-29T04:57:50;2.47;;;2.27;;
7166;SDS011;3625;51.762;14.320;2022-12-29T05:00:20;2.13;;;2.00;;
7166;SDS011;3625;51.762;14.320;2022-12-29T05:02:49;2.30;;;2.10;;
7166;SDS011;3625;51.762;14.320;2022-12-29T05:05:20;2.70;;;2.50;;
7166;SDS011;3625;51.762;14.320;2022-12-29T05:07:50;3.13;;;2.40;;
7166;SDS011;3625;51.762;14.320;2022-12-29T05:10:21;2.10;;;2.00;;
7166;SDS011;3625;51.762;14.320;2022-12-29T05:12:53;2.27;;;2.07;;
7166;SDS011;3625;51.762;14.320;2022-12-29T05:15:22;2.60;;;2.40;;
7166;SDS011;3625;51.762;14.320;2022-12-29T05:17:50;2.17;;;2.03;;
7166;SDS011;3625;51.762;14.320;2022-12-29T05:20:19;2.00;;;1.90;;
7166;SDS011;3625;51.762;14.320;2022-12-29T05:22:48;3.73;;;2.40;;
7166;SDS011;3625;51.762;14.320;2022-12-29T05:25:16;2.33;;;1.90;;
7166;SDS011;3625;51.762;14.320;2022-12-29T05:27:58;2.00;;;1.90;;
7166;SDS011;3625;51.762;14.320;2022-12-29T05:30:47;2.13;;;2.00;;
7166;SDS011;3625;51.762;14.320;2022-12-29T05:33:18;2.20;;;2.10;;
7166;SDS011;3625;51.762;14.320;2022-12-29T05:35:49;2.10;;;1.90;;
7166;SDS011;3625;51.762;14.320;2022-12-29T05:38:19;2.00;;;1.90;;
7166;SDS011;3625;51.762;14.320;2022-12-29T05:40:48;2.63;;;2.40;;
7166;SDS011;3625;51.762;14.320;2022-12-29T05:43:53;2.33;;;2.13;;
7166;SDS011;3625;51.762;14.320;2022-12-29T05:46:31;2.70;;;2.50;;
7166;SDS011;3625;51.762;14.320;2022-12-29T05:49:17;3.00;;;2.27;;
7166;SDS011;3625;51.762;14.320;2022-12-29T05:51:57;2.90;;;1.97;;
7166;SDS011;3625;51.762;14.320;2022-12-29T05:54:27;2.20;;;2.00;;
7166;SDS011;3625;51.762;14.320;2022-12-29T05:56:56;4.00;;;2.23;;
7166;SDS011;3625;51.762;14.320;2022-12-29T05:59:26;4.17;;;2.00;;
7166;SDS011;3625;51.762;14.320;2022-12-29T06:01:55;2.60;;;2.10;;
7166;SDS011;3625;51.762;14.320;2022-12-29T06:04:24;2.40;;;2.20;;
7166;SDS011;3625;51.762;14.320;2022-12-29T06:06:52;2.10;;;1.87;;
7166;SDS011;3625;51.762;14.320;2022-12-29T06:09:31;2.23;;;1.87;;
7166;SDS011;3625;51.762;14.320;2022-12-29T06:12:01;2.57;;;2.10;;
7166;SDS011;3625;51.762;14.320;2022-12-29T06:14:30;1.97;;;1.87;;
7166;SDS011;3625;51.762;14.320;2022-12-29T06:17:02;2.20;;;2.00;;
7166;SDS011;3625;51.762;14.320;2022-12-29T06:19:34;2.67;;;2.10;;
7166;SDS011;3625;51.762;14.320;2022-12-29T06:22:02;2.13;;;1.97;;
7166;SDS011;3625;51.762;14.320;2022-12-29T06:24:33;2.17;;;2.00;;
7166;SDS011;3625;51.762;14.320;2022-12-29T06:27:01;2.67;;;2.27;;
7166;SDS011;3625;51.762;14.320;2022-12-29T06:29:32;2.20;;;2.00;;
7166;SDS011;3625;51.762;14.320;2022-12-29T06:32:02;4.30;;;2.10;;
7166;SDS011;3625;51.762;14.320;2022-12-29T06:34:32;3.10;;;2.10;;
7166;SDS011;3625;51.762;14.320;2022-12-29T06:37:01;2.40;;;2.20;;
7166;SDS011;3625;51.762;14.320;2022-12-29T06:39:30;2.13;;;2.03;;
7166;SDS011;3625;51.762;14.320;2022-12-29T06:42:03;2.67;;;2.07;;
7166;SDS011;3625;51.762;14.320;2022-12-29T06:45:06;3.43;;;2.53;;
7166;SDS011;3625;51.762;14.320;2022-12-29T06:47:35;2.87;;;2.60;;
7166;SDS011;3625;51.762;14.320;2022-12-29T06:50:04;2.30;;;2.03;;
7166;SDS011;3625;51.762;14.320;2022-12-29T06:52:33;3.53;;;2.30;;
7166;SDS011;3625;51.762;14.320;2022-12-29T06:55:04;2.97;;;2.00;;
7166;SDS011;3625;51.762;14.320;2022-12-29T06:57:33;2.67;;;2.23;;
7166;SDS011;3625;51.762;14.320;2022-12-29T07:00:02;3.23;;;2.37;;
7166;SDS011;3625;51.762;14.320;2022-12-29T07:02:33;2.97;;;2.30;;
7166;SDS011;3625;51.762;14.320;2022-12-29T07:05:03;2.20;;;1.93;;
7166;SDS011;3625;51.762;14.320;2022-12-29T07:07:33;2.53;;;2.30;;
7166;SDS011;3625;51.762;14.320;2022-12-29T07:10:02;2.53;;;2.33;;
7166;SDS011;3625;51.762;14.320;2022-12-29T07:12:31;2.60;;;2.40;;
7166;SDS011;3625;51.762;14.320;2022-12-29T07:15:00;2.50;;;2.30;;
7166;SDS011;3625;51.762;14.320;2022-12-29T07:17:44;2.80;;;2.40;;
7166;SDS011;3625;51.762;14.320;2022-12-29T07:20:12;2.27;;;2.07;;
7166;SDS011;3625;51.762;14.320;2022-12-29T07:22:41;2.90;;;2.40;;
7166;SDS011;3625;51.762;14.320;2022-12-29T07:25:09;2.20;;;2.10;;
7166;SDS011;3625;51.762;14.320;2022-12-29T07:27:38;2.57;;;2.37;;
7166;SDS011;3625;51.762;14.320;2022-12-29T07:30:07;2.70;;;2.17;;
7166;SDS011;3625;51.762;14.320;2022-12-29T07:32:37;2.90;;;2.40;;
7166;SDS011;3625;51.762;14.320;2022-12-29T07:35:07;2.40;;;2.30;;
7166;SDS011;3625;51.762;14.320;2022-12-29T07:37:36;2.80;;;2.60;;
7166;SDS011;3625;51.762;14.320;2022-12-29T07:40:05;2.40;;;2.20;;
7166;SDS011;3625;51.762;14.320;2022-12-29T07:42:37;2.50;;;2.30;;
7166;SDS011;3625;51.762;14.320;2022-12-29T07:45:08;2.80;;;2.50;;
7166;SDS011;3625;51.762;14.320;2022-12-29T07:47:59;6.17;;;2.70;;
7166;SDS011;3625;51.762;14.320;2022-12-29T07:50:30;3.47;;;2.60;;
7166;SDS011;3625;51.762;14.320;2022-12-29T07:52:59;3.00;;;2.70;;
7166;SDS011;3625;51.762;14.320;2022-12-29T07:55:27;2.60;;;2.40;;
7166;SDS011;3625;51.762;14.320;2022-12-29T07:57:56;2.80;;;2.30;;
7166;SDS011;3625;51.762;14.320;2022-12-29T08:00:24;2.70;;;2.50;;
7166;SDS011;3625;51.762;14.320;2022-12-29T08:02:53;2.40;;;2.20;;
7166;SDS011;3625;51.762;14.320;2022-12-29T08:05:22;3.03;;;2.60;;
7166;SDS011;3625;51.762;14.320;2022-12-29T08:07:52;2.07;;;1.97;;
7166;SDS011;3625;51.762;14.320;2022-12-29T08:10:22;5.93;;;2.40;;
7166;SDS011;3625;51.762;14.320;2022-12-29T08:12:51;3.90;;;2.53;;
7166;SDS011;3625;51.762;14.320;2022-12-29T08:15:23;2.90;;;2.70;;
7166;SDS011;3625;51.762;14.320;2022-12-29T08:17:58;3.53;;;2.40;;
7166;SDS011;3625;51.762;14.320;2022-12-29T08:20:26;3.57;;;2.90;;
7166;SDS011;3625;51.762;14.320;2022-12-29T08:22:56;2.97;;;2.37;;
7166;SDS011;3625;51.762;14.320;2022-12-29T08:25:25;4.43;;;2.73;;
7166;SDS011;3625;51.762;14.320;2022-12-29T08:27:53;2.90;;;2.60;;
7166;SDS011;3625;51.762;14.320;2022-12-29T08:30:22;3.00;;;2.80;;
7166;SDS011;3625;51.762;14.320;2022-12-29T08:32:51;3.00;;;2.70;;
7166;SDS011;3625;51.762;14.320;2022-12-29T08:35:20;2.97;;;2.70;;
7166;SDS011;3625;51.762;14.320;2022-12-29T08:37:48;3.40;;;3.10;;
7166;SDS011;3625;51.762;14.320;2022-12-29T08:40:18;2.47;;;2.27;;
7166;SDS011;3625;51.762;14.320;2022-12-29T08:42:46;2.67;;;2.47;;
7166;SDS011;3625;51.762;14.320;2022-12-29T08:45:15;2.77;;;2.20;;
7166;SDS011;3625;51.762;14.320;2022-12-29T08:47:44;3.20;;;2.60;;
7166;SDS011;3625;51.762;14.320;2022-12-29T08:50:12;2.70;;;2.50;;
7166;SDS011;3625;51.762;14.320;2022-12-29T08:52:42;2.40;;;2.20;;
7166;SDS011;3625;51.762;14.320;2022-12-29T08:55:10;3.53;;;2.70;;
7166;SDS011;3625;51.762;14.320;2022-12-29T08:57:40;3.10;;;2.80;;
7166;SDS011;3625;51.762;14.320;2022-12-29T09:00:14;3.10;;;2.73;;
7166;SDS011;3625;51.762;14.320;2022-12-29T09:02:44;2.50;;;2.30;;
7166;SDS011;3625;51.762;14.320;2022-12-29T09:05:13;3.50;;;2.33;;
7166;SDS011;3625;51.762;14.320;2022-12-29T09:07:42;3.13;;;2.83;;
7166;SDS011;3625;51.762;14.320;2022-12-29T09:10:11;2.70;;;2.50;;
7166;SDS011;3625;51.762;14.320;2022-12-29T09:12:41;3.10;;;2.80;;
7166;SDS011;3625;51.762;14.320;2022-12-29T09:15:09;4.27;;;2.90;;
7166;SDS011;3625;51.762;14.320;2022-12-29T09:17:39;3.70;;;2.90;;
7166;SDS011;3625;51.762;14.320;2022-12-29T09:20:14;3.37;;;2.17;;
7166;SDS011;3625;51.762;14.320;2022-12-29T09:22:45;2.40;;;2.20;;
7166;SDS011;3625;51.762;14.320;2022-12-29T09:25:15;3.40;;;2.10;;
7166;SDS011;3625;51.762;14.320;2022-12-29T09:30:59;3.83;;;2.30;;
7166;SDS011;3625;51.762;14.320;2022-12-29T09:33:29;2.87;;;2.37;;
7166;SDS011;3625;51.762;14.320;2022-12-29T09:35:59;4.73;;;2.50;;
7166;SDS011;3625;51.762;14.320;2022-12-29T09:38:28;2.10;;;1.90;;
7166;SDS011;3625;51.762;14.320;2022-12-29T09:40:59;3.17;;;2.00;;
7166;SDS011;3625;51.762;14.320;2022-12-29T09:43:42;3.17;;;2.00;;
7166;SDS011;3625;51.762;14.320;2022-12-29T09:46:31;2.27;;;1.77;;
7166;SDS011;3625;51.762;14.320;2022-12-29T09:49:12;2.53;;;2.00;;
7166;SDS011;3625;51.762;14.320;2022-12-29T09:51:53;1.60;;;1.50;;
7166;SDS011;3625;51.762;14.320;2022-12-29T09:54:34;2.10;;;1.70;;
7166;SDS011;3625;51.762;14.320;2022-12-29T09:57:21;4.13;;;2.00;;
7166;SDS011;3625;51.762;14.320;2022-12-29T10:00:01;3.23;;;1.97;;
7166;SDS011;3625;51.762;14.320;2022-12-29T10:02:42;2.13;;;1.97;;
7166;SDS011;3625;51.762;14.320;2022-12-29T10:05:26;2.10;;;1.90;;
7166;SDS011;3625;51.762;14.320;2022-12-29T10:08:19;3.17;;;1.70;;
7166;SDS011;3625;51.762;14.320;2022-12-29T10:11:05;1.97;;;1.70;;
7166;SDS011;3625;51.762;14.320;2022-12-29T10:13:55;2.73;;;1.80;;
7166;SDS011;3625;51.762;14.320;2022-12-29T10:16:48;2.30;;;1.50;;
7166;SDS011;3625;51.762;14.320;2022-12-29T10:19:28;2.00;;;1.80;;
7166;SDS011;3625;51.762;14.320;2022-12-29T10:22:18;2.50;;;1.90;;
7166;SDS011;3625;51.762;14.320;2022-12-29T10:25:09;2.10;;;1.93;;
7166;SDS011;3625;51.762;14.320;2022-12-29T10:27:47;1.80;;;1.70;;
7166;SDS011;3625;51.762;14.320;2022-12-29T10:30:17;2.83;;;1.50;;
7166;SDS011;3625;51.762;14.320;2022-12-29T10:32:48;1.77;;;1.60;;
7166;SDS011;3625;51.762;14.320;2022-12-29T10:35:23;1.80;;;1.70;;
7166;SDS011;3625;51.762;14.320;2022-12-29T10:37:58;2.72;;;1.70;;
7166;SDS011;3625;51.762;14.320;2022-12-29T10:40:40;1.90;;;1.67;;
7166;SDS011;3625;51.762;14.320;2022-12-29T10:43:16;1.93;;;1.63;;
7166;SDS011;3625;51.762;14.320;2022-12-29T10:45:54;1.90;;;1.80;;
7166;SDS011;3625;51.762;14.320;2022-12-29T10:48:28;1.60;;;1.50;;
7166;SDS011;3625;51.762;14.320;2022-12-29T10:51:01;1.80;;;1.70;;
7166;SDS011;3625;51.762;14.320;2022-12-29T10:53:37;1.70;;;1.60;;
7166;SDS011;3625;51.762;14.320;2022-12-29T10:56:15;2.07;;;1.80;;
7166;SDS011;3625;51.762;14.320;2022-12-29T10:58:57;2.53;;;1.60;;
7166;SDS011;3625;51.762;14.320;2022-12-29T11:01:40;2.90;;;1.73;;
7166;SDS011;3625;51.762;14.320;2022-12-29T11:04:35;2.13;;;1.40;;
7166;SDS011;3625;51.762;14.320;2022-12-29T11:07:22;1.53;;;1.43;;
7166;SDS011;3625;51.762;14.320;2022-12-29T11:09:53;1.87;;;1.70;;
7166;SDS011;3625;51.762;14.320;2022-12-29T11:12:23;1.98;;;1.45;;
7166;SDS011;3625;51.762;14.320;2022-12-29T11:17:45;1.98;;;1.40;;
7166;SDS011;3625;51.762;14.320;2022-12-29T11:20:27;2.05;;;1.63;;
7166;SDS011;3625;51.762;14.320;2022-12-29T11:23:00;5.43;;;1.67;;
7166;SDS011;3625;51.762;14.320;2022-12-29T11:25:30;1.77;;;1.60;;
7166;SDS011;3625;51.762;14.320;2022-12-29T11:28:00;3.00;;;1.58;;
7166;SDS011;3625;51.762;14.320;2022-12-29T11:30:39;1.50;;;1.40;;
7166;SDS011;3625;51.762;14.320;2022-12-29T11:33:08;1.77;;;1.58;;
7166;SDS011;3625;51.762;14.320;2022-12-29T11:35:40;1.80;;;1.55;;
7166;SDS011;3625;51.762;14.320;2022-12-29T11:38:16;1.80;;;1.70;;
7166;SDS011;3625;51.762;14.320;2022-12-29T11:40:49;2.42;;;1.40;;
7166;SDS011;3625;51.762;14.320;2022-12-29T11:43:19;1.73;;;1.63;;
7166;SDS011;3625;51.762;14.320;2022-12-29T11:45:56;1.50;;;1.40;;
7166;SDS011;3625;51.762;14.320;2022-12-29T11:48:24;1.60;;;1.50;;
7166;SDS011;3625;51.762;14.320;2022-12-29T11:51:02;1.60;;;1.50;;
7166;SDS011;3625;51.762;14.320;2022-12-29T11:53:37;1.80;;;1.60;;
7166;SDS011;3625;51.762;14.320;2022-12-29T11:56:12;1.85;;;1.30;;
7166;SDS011;3625;51.762;14.320;2022-12-29T11:58:45;2.40;;;1.30;;
7166;SDS011;3625;51.762;14.320;2022-12-29T12:01:16;1.50;;;1.40;;
7166;SDS011;3625;51.762;14.320;2022-12-29T12:03:59;1.92;;;1.40;;
7166;SDS011;3625;51.762;14.320;2022-12-29T12:06:36;1.85;;;1.40;;
7166;SDS011;3625;51.762;14.320;2022-12-29T12:09:16;1.48;;;1.30;;
7166;SDS011;3625;51.762;14.320;2022-12-29T12:11:55;2.03;;;1.50;;
7166;SDS011;3625;51.762;14.320;2022-12-29T12:14:30;1.50;;;1.40;;
7166;SDS011;3625;51.762;14.320;2022-12-29T12:17:46;1.40;;;1.30;;
7166;SDS011;3625;51.762;14.320;2022-12-29T12:20:21;1.80;;;1.30;;
7166;SDS011;3625;51.762;14.320;2022-12-29T12:23:01;1.80;;;1.70;;
7166;SDS011;3625;51.762;14.320;2022-12-29T12:25:43;5.28;;;1.52;;
7166;SDS011;3625;51.762;14.320;2022-12-29T12:28:26;1.60;;;1.50;;
7166;SDS011;3625;51.762;14.320;2022-12-29T12:31:11;2.90;;;1.50;;
7166;SDS011;3625;51.762;14.320;2022-12-29T12:33:59;4.45;;;1.63;;
7166;SDS011;3625;51.762;14.320;2022-12-29T12:39:49;1.50;;;1.40;;
7166;SDS011;3625;51.762;14.320;2022-12-29T12:42:56;4.07;;;1.70;;
7166;SDS011;3625;51.762;14.320;2022-12-29T12:45:45;1.55;;;1.40;;
7166;SDS011;3625;51.762;14.320;2022-12-29T12:48:34;3.42;;;1.55;;
7166;SDS011;3625;51.762;14.320;2022-12-29T12:51:20;1.63;;;1.38;;
7166;SDS011;3625;51.762;14.320;2022-12-29T12:54:04;1.67;;;1.42;;
7166;SDS011;3625;51.762;14.320;2022-12-29T12:56:57;2.25;;;1.77;;
7166;SDS011;3625;51.762;14.320;2022-12-29T12:59:52;2.22;;;1.70;;
7166;SDS011;3625;51.762;14.320;2022-12-29T13:02:34;2.70;;;1.50;;
7166;SDS011;3625;51.762;14.320;2022-12-29T13:05:25;1.52;;;1.42;;
7166;SDS011;3625;51.762;14.320;2022-12-29T13:08:29;2.30;;;1.55;;
7166;SDS011;3625;51.762;14.320;2022-12-29T13:11:46;1.88;;;1.63;;
7166;SDS011;3625;51.762;14.320;2022-12-29T13:14:38;2.45;;;1.70;;
7166;SDS011;3625;51.762;14.320;2022-12-29T13:17:20;3.45;;;1.55;;
7166;SDS011;3625;51.762;14.320;2022-12-29T13:20:18;2.22;;;1.50;;
7166;SDS011;3625;51.762;14.320;2022-12-29T13:22:58;3.28;;;1.20;;
7166;SDS011;3625;51.762;14.320;2022-12-29T13:25:40;1.58;;;1.48;;
7166;SDS011;3625;51.762;14.320;2022-12-29T13:28:19;1.73;;;1.58;;
7166;SDS011;3625;51.762;14.320;2022-12-29T13:30:57;1.60;;;1.40;;
7166;SDS011;3625;51.762;14.320;2022-12-29T13:33:39;1.60;;;1.50;;
7166;SDS011;3625;51.762;14.320;2022-12-29T13:36:21;1.77;;;1.60;;
7166;SDS011;3625;51.762;14.320;2022-12-29T13:39:01;2.42;;;1.90;;
7166;SDS011;3625;51.762;14.320;2022-12-29T13:41:47;3.30;;;1.60;;
7166;SDS011;3625;51.762;14.320;2022-12-29T13:44:21;1.70;;;1.60;;
7166;SDS011;3625;51.762;14.320;2022-12-29T13:47:04;3.00;;;1.70;;
7166;SDS011;3625;51.762;14.320;2022-12-29T13:49:54;1.60;;;1.50;;
7166;SDS011;3625;51.762;14.320;2022-12-29T13:52:28;4.55;;;1.63;;
7166;SDS011;3625;51.762;14.320;2022-12-29T13:55:15;3.30;;;1.75;;
7166;SDS011;3625;51.762;14.320;2022-12-29T13:57:57;1.90;;;1.80;;
7166;SDS011;3625;51.762;14.320;2022-12-29T14:00:38;1.90;;;1.60;;
7166;SDS011;3625;51.762;14.320;2022-12-29T14:03:29;1.73;;;1.63;;
7166;SDS011;3625;51.762;14.320;2022-12-29T14:06:19;2.65;;;1.80;;
7166;SDS011;3625;51.762;14.320;2022-12-29T14:08:55;1.60;;;1.50;;
7166;SDS011;3625;51.762;14.320;2022-12-29T14:11:31;2.15;;;2.00;;
7166;SDS011;3625;51.762;14.320;2022-12-29T14:14:10;1.77;;;1.55;;
7166;SDS011;3625;51.762;14.320;2022-12-29T14:16:47;1.90;;;1.80;;
7166;SDS011;3625;51.762;14.320;2022-12-29T14:19:18;2.13;;;1.83;;
7166;SDS011;3625;51.762;14.320;2022-12-29T14:21:54;1.73;;;1.63;;
7166;SDS011;3625;51.762;14.320;2022-12-29T14:24:40;3.85;;;1.95;;
7166;SDS011;3625;51.762;14.320;2022-12-29T14:33:24;2.03;;;1.60;;
7166;SDS011;3625;51.762;14.320;2022-12-29T14:35:56;2.43;;;1.80;;
7166;SDS011;3625;51.762;14.320;2022-12-29T14:38:48;3.17;;;2.10;;
7166;SDS011;3625;51.762;14.320;2022-12-29T14:41:24;2.50;;;1.70;;
7166;SDS011;3625;51.762;14.320;2022-12-29T14:44:01;2.95;;;1.73;;
7166;SDS011;3625;51.762;14.320;2022-12-29T14:46:45;2.23;;;1.80;;
7166;SDS011;3625;51.762;14.320;2022-12-29T14:49:24;2.03;;;1.83;;
7166;SDS011;3625;51.762;14.320;2022-12-29T14:52:04;4.35;;;1.95;;
7166;SDS011;3625;51.762;14.320;2022-12-29T14:54:44;2.03;;;1.92;;
7166;SDS011;3625;51.762;14.320;2022-12-29T14:57:25;2.50;;;1.70;;
7166;SDS011;3625;51.762;14.320;2022-12-29T15:00:12;1.85;;;1.73;;
7166;SDS011;3625;51.762;14.320;2022-12-29T15:02:47;3.33;;;2.10;;
7166;SDS011;3625;51.762;14.320;2022-12-29T15:05:30;2.10;;;1.60;;
7166;SDS011;3625;51.762;14.320;2022-12-29T15:08:04;2.45;;;2.25;;
7166;SDS011;3625;51.762;14.320;2022-12-29T15:10:39;2.33;;;2.00;;
7166;SDS011;3625;51.762;14.320;2022-12-29T15:13:16;2.53;;;2.03;;
7166;SDS011;3625;51.762;14.320;2022-12-29T15:15:50;5.37;;;2.13;;
7166;SDS011;3625;51.762;14.320;2022-12-29T15:18:22;3.15;;;2.25;;
7166;SDS011;3625;51.762;14.320;2022-12-29T15:20:53;2.38;;;2.13;;
7166;SDS011;3625;51.762;14.320;2022-12-29T15:23:25;2.65;;;2.20;;
7166;SDS011;3625;51.762;14.320;2022-12-29T15:25:57;2.27;;;1.87;;
7166;SDS011;3625;51.762;14.320;2022-12-29T15:28:36;2.17;;;1.93;;
7166;SDS011;3625;51.762;14.320;2022-12-29T15:31:10;2.25;;;1.95;;
7166;SDS011;3625;51.762;14.320;2022-12-29T15:33:43;2.35;;;2.15;;
7166;SDS011;3625;51.762;14.320;2022-12-29T15:36:36;2.67;;;1.97;;
7166;SDS011;3625;51.762;14.320;2022-12-29T15:39:17;2.43;;;2.00;;
7166;SDS011;3625;51.762;14.320;2022-12-29T15:41:49;2.60;;;2.10;;
7166;SDS011;3625;51.762;14.320;2022-12-29T15:44:28;3.08;;;2.25;;
7166;SDS011;3625;51.762;14.320;2022-12-29T15:47:04;2.22;;;1.85;;
7166;SDS011;3625;51.762;14.320;2022-12-29T15:49:48;2.17;;;1.80;;
7166;SDS011;3625;51.762;14.320;2022-12-29T15:52:23;2.85;;;1.83;;
7166;SDS011;3625;51.762;14.320;2022-12-29T15:55:01;3.17;;;1.90;;
7166;SDS011;3625;51.762;14.320;2022-12-29T15:57:36;2.17;;;2.00;;
7166;SDS011;3625;51.762;14.320;2022-12-29T16:00:20;2.20;;;1.90;;
7166;SDS011;3625;51.762;14.320;2022-12-29T16:02:52;2.47;;;2.27;;
7166;SDS011;3625;51.762;14.320;2022-12-29T16:05:24;2.00;;;1.80;;
7166;SDS011;3625;51.762;14.320;2022-12-29T16:08:02;5.00;;;2.30;;
7166;SDS011;3625;51.762;14.320;2022-12-29T16:10:48;2.70;;;1.90;;
7166;SDS011;3625;51.762;14.320;2022-12-29T16:13:26;2.90;;;1.90;;
7166;SDS011;3625;51.762;14.320;2022-12-29T16:16:07;2.10;;;1.90;;
7166;SDS011;3625;51.762;14.320;2022-12-29T16:18:42;4.13;;;2.37;;
7166;SDS011;3625;51.762;14.320;2022-12-29T16:21:19;2.78;;;1.90;;
7166;SDS011;3625;51.762;14.320;2022-12-29T16:23:55;2.20;;;2.00;;
7166;SDS011;3625;51.762;14.320;2022-12-29T16:26:30;2.73;;;1.90;;
7166;SDS011;3625;51.762;14.320;2022-12-29T16:29:02;2.50;;;1.83;;